Coila, Mississippi
Current Conditions -  °F | °C
As of 12:53 PM on Tuesday 21 Oct 2014 (Local Time) from KGWO Reporting Station
Clear Clear  
Wind Chill: 75°   Ceiling: Unl
Heat Index: 75°   Visibility: 10mi
Dew Point: 59°   Wind: 5mph
Humidity: 57%   Direction: NA
Pressure: 30.07"   Gusts: NA
Location:  33.4°N, 89.97°W
Report Text: KGWO 211753Z AUTO VRB04KT 10SM CLR 24/15 A3007 RMK AO2 SLP180 T02390150 10250 20089 58014 TSNO
Loading
Personal Weather Stations






























Interactive Weather Map
Tropical Storm Tracking
New forecast layout! Learn more

10-Day Weather Forecast

Advertisements
Track Severe Weather on mobile